Cmb Ariane — VRIT7 — position and weather

sailwx.info

Track history (hours):
 
Tides and Currents Weather Stations Pressure Air Temp Water Temp Dewpoint Dewpoint Depression Visibility Wind Speed Wind Dir Waves Ship Positions

Cmb Ariane

Last reported at 2015-Aug-13 17:33 UTC. Time now 2015-Aug-30 11:58 UTC.
Position N 50°33' E 000°19'.
Warning: this ship's position is 16 days out of date.

Length 180 m; draft 9.9 m.

Type: Cargo ship. MMSI: 477229600.

Date/timePositionNaut miles runAvg speedWind from/ knotsBaromVisibWave heightAir tempDewpointWater temp
2015-Aug-13 17:33N 50°33' E 000°19'1313.5
2015-Aug-13 16:34N 50°39' E 000°38'1414.1
2015-Aug-13 15:34N 50°48' E 000°56'1513.5
2015-Aug-13 14:26N 50°58' E 001°14'1112.2
2015-Aug-13 13:33N 51°04' E 001°27'1110.8
2015-Aug-13 12:33N 51°11' E 001°41'1110.5
2015-Aug-13 11:33N 51°20' E 001°50'1212.0
2015-Aug-13 10:33N 51°30' E 002°00'1413.2
2015-Aug-13 09:32N 51°40' E 002°14'1414.1
2015-Aug-13 08:33N 51°50' E 002°29'1614.3
2015-Aug-13 07:26N 52°03' E 002°46'1914.1
2015-Aug-13 06:07N 52°17' E 003°06'1113.3
2015-Aug-13 05:18N 52°26' E 003°16'1112.6
2015-Aug-13 04:25N 52°34' E 003°27'1612.0
2015-Aug-13 03:08N 52°47' E 003°43'711.7
2015-Aug-13 02:32N 52°52' E 003°50'1111.7
2015-Aug-13 01:33N 52°60' E 004°04'1312.6
2015-Aug-13 00:33N 53°08' E 004°20'1313.2
2015-Aug-12 23:33N 53°20' E 004°29'1413.7
2015-Aug-12 22:33N 53°33' E 004°37'1313.4
2015-Aug-12 21:33N 53°45' E 004°45'1313.0
2015-Aug-12 20:33N 53°58' E 004°53'1312.7
2015-Aug-12 19:32N 54°09' E 005°02'26512.0
2015-Aug-11 21:24N 57°46' E 009°33'1011.3
2015-Aug-11 20:33N 57°48' E 009°51'1211.6
2015-Aug-11 19:33N 57°49' E 010°12'1211.8
2015-Aug-11 18:33N 57°49' E 010°35'7 7.4
2015-Aug-11 17:33N 57°44' E 010°45'3 2.6
2015-Aug-11 16:33N 57°42' E 010°47'1110.7
2015-Aug-11 15:33N 57°38' E 011°06'1312.9
2015-Aug-11 14:33N 57°30' E 011°23'1212.5
2015-Aug-11 13:33N 57°18' E 011°33'1313.1
2015-Aug-11 12:33N 57°06' E 011°41'1313.1
2015-Aug-11 11:33N 56°54' E 011°49'1111.4
2015-Aug-11 10:33N 56°42' E 011°47'6512.0
2015-Aug-11 05:10N 55°46' E 010°49'813.7
2015-Aug-11 04:34N 55°38' E 010°48'1414.1
2015-Aug-11 03:33N 55°25' E 010°59'1211.9
2015-Aug-11 02:34N 55°14' E 011°06'1313.2
2015-Aug-11 01:34N 55°01' E 011°02'1212.4
2015-Aug-11 00:33N 54°50' E 010°52'1211.6
2015-Aug-10 23:34N 54°39' E 011°00'1413.6
2015-Aug-10 22:34N 54°33' E 011°21'1313.1
2015-Aug-10 21:33N 54°28' E 011°42'1312.9
2015-Aug-10 20:34N 54°27' E 012°04'1111.1
2015-Aug-10 19:33N 54°35' E 012°16'7 6.8
2015-Aug-10 18:34N 54°40' E 012°24'1212.2
2015-Aug-10 17:34N 54°47' E 012°42'1312.8
2015-Aug-10 16:33N 54°52' E 013°03'1313.1
2015-Aug-10 15:33N 54°56' E 013°24'1312.7
2015-Aug-10 14:34N 55°00' E 013°45'1312.8
2015-Aug-10 13:33N 55°05' E 014°06'1312.6
2015-Aug-10 12:33N 55°15' E 014°19'1312.8
2015-Aug-10 11:33N 55°25' E 014°33'1312.7
2015-Aug-10 10:33N 55°32' E 014°52'1313.0
2015-Aug-10 09:33N 55°38' E 015°12'1312.9
2015-Aug-10 08:33N 55°45' E 015°32'1312.9
2015-Aug-10 07:33N 55°51' E 015°52'1312.8
2015-Aug-10 06:33N 55°58' E 016°11'1312.9
2015-Aug-10 05:33N 56°04' E 016°32'1512.9
2015-Aug-10 04:25N 56°12' E 016°54'1412.7
2015-Aug-10 03:18N 56°20' E 017°14'2512.5
2015-Aug-10 01:19N 56°36' E 017°49'20212.7
2015-Aug-09 09:19N 59°14' E 021°49'1012.6
2015-Aug-09 08:33N 59°19' E 022°03'1312.6
2015-Aug-09 07:34N 59°26' E 022°24'1312.6
2015-Aug-09 06:34N 59°32' E 022°46'1312.5
2015-Aug-09 05:33N 59°35' E 023°10'1312.6
2015-Aug-09 04:33N 59°40' E 023°33'1312.7
2015-Aug-09 03:34N 59°43' E 023°58'1212.4
2015-Aug-09 02:33N 59°47' E 024°21'1712.4
2015-Aug-09 01:13N 59°50' E 024°54'2212.5
2015-Aug-08 23:28N 59°54' E 025°36'1612.3
2015-Aug-08 22:11N 59°58' E 026°07'812.2
2015-Aug-08 21:33N 59°60' E 026°22'1211.7
2015-Aug-08 20:34N 60°01' E 026°45'1311.6
2015-Aug-08 19:24N 60°02' E 027°12'1112.4
2015-Aug-08 18:33N 60°08' E 027°30'38 4.6
2015-Aug-08 10:20N 59°42' E 028°26'0 0.0
2015-Aug-08 00:29N 59°42' E 028°26'36 0.8
2015-Aug-06 06:10N 60°09' E 027°41'913.1
2015-Aug-06 05:31N 60°05' E 027°26'1313.6
2015-Aug-06 04:33N 59°58' E 027°04'1312.8
2015-Aug-06 03:33N 59°60' E 026°39'1313.3
2015-Aug-06 02:34N 59°56' E 026°13'1313.2
2015-Aug-06 01:33N 59°52' E 025°48'1313.1
2015-Aug-06 00:33N 59°50' E 025°22'1313.2
2015-Aug-05 23:33N 59°47' E 024°56'1313.4
2015-Aug-05 22:33N 59°44' E 024°31'1313.2
2015-Aug-05 21:33N 59°41' E 024°05'1313.1
2015-Aug-05 20:33N 59°36' E 023°41'1312.9
2015-Aug-05 19:33N 59°32' E 023°17'1312.7
2015-Aug-05 18:33N 59°28' E 022°53'1312.6
2015-Aug-05 17:33N 59°23' E 022°31'1312.9
2015-Aug-05 16:33N 59°15' E 022°11'20813.7
2015-Aug-05 01:18N 56°11' E 019°08'1014.0
2015-Aug-05 00:33N 56°00' E 019°06'1413.8
2015-Aug-04 23:33N 55°47' E 019°03'1413.7
2015-Aug-04 22:33N 55°33' E 019°01'1413.8
2015-Aug-04 21:34N 55°20' E 019°04'1413.9
2015-Aug-04 20:34N 55°06' E 019°09'1413.9
2015-Aug-04 19:33N 54°52' E 019°15'1413.7
2015-Aug-04 18:34N 54°46' E 019°35'1312.2
2015-Aug-04 17:29N 54°38' E 019°54'11 1.5
2015-Aug-04 10:11N 54°41' E 020°12'0 0.0
2015-Aug-04 09:26N 54°41' E 020°12'0 0.0
2015-Aug-04 08:32N 54°41' E 020°12'0 0.0
2015-Aug-04 07:29N 54°41' E 020°12'0 0.0
2015-Aug-04 06:32N 54°41' E 020°12'0 0.0
2015-Aug-04 05:32N 54°41' E 020°12'0 0.0
2015-Aug-04 04:32N 54°41' E 020°12'0 0.0
2015-Aug-04 03:32N 54°41' E 020°12'0 0.0
2015-Aug-04 02:32N 54°41' E 020°12'0 0.0
2015-Aug-04 01:32N 54°41' E 020°12'0 0.0
2015-Aug-04 00:32N 54°41' E 020°12'0 0.0
2015-Aug-03 23:32N 54°41' E 020°12'0 0.0
2015-Aug-03 22:32N 54°41' E 020°12'0 0.0
2015-Aug-03 21:32N 54°41' E 020°12'0 0.0
2015-Aug-03 20:32N 54°41' E 020°12'0 0.0
2015-Aug-03 19:32N 54°41' E 020°12'0 0.0
2015-Aug-03 18:29N 54°41' E 020°12'  
Track history (hours):
 
Tides and Currents Weather Stations Pressure Air Temp Water Temp Dewpoint Dewpoint Depression Visibility Wind Speed Wind Dir Waves Ship Positions

Cmb Ariane

Last reported at 2015-Aug-13 17:33 UTC. Time now 2015-Aug-30 11:58 UTC.
Position N 50°33' E 000°19'.
Warning: this ship's position is 16 days out of date.

Length 180 m; draft 9.9 m.

Type: Cargo ship. MMSI: 477229600.

Date/timePositionNaut miles runAvg speedWind from/ knotsBaromVisibWave heightAir tempDewpointWater temp
2015-Aug-13 17:33N 50°33' E 000°19'1313.5
2015-Aug-13 16:34N 50°39' E 000°38'1414.1
2015-Aug-13 15:34N 50°48' E 000°56'1513.5
2015-Aug-13 14:26N 50°58' E 001°14'1112.2
2015-Aug-13 13:33N 51°04' E 001°27'1110.8
2015-Aug-13 12:33N 51°11' E 001°41'1110.5
2015-Aug-13 11:33N 51°20' E 001°50'1212.0
2015-Aug-13 10:33N 51°30' E 002°00'1413.2
2015-Aug-13 09:32N 51°40' E 002°14'1414.1
2015-Aug-13 08:33N 51°50' E 002°29'1614.3
2015-Aug-13 07:26N 52°03' E 002°46'1914.1
2015-Aug-13 06:07N 52°17' E 003°06'1113.3
2015-Aug-13 05:18N 52°26' E 003°16'1112.6
2015-Aug-13 04:25N 52°34' E 003°27'1612.0
2015-Aug-13 03:08N 52°47' E 003°43'711.7
2015-Aug-13 02:32N 52°52' E 003°50'1111.7
2015-Aug-13 01:33N 52°60' E 004°04'1312.6
2015-Aug-13 00:33N 53°08' E 004°20'1313.2
2015-Aug-12 23:33N 53°20' E 004°29'1413.7
2015-Aug-12 22:33N 53°33' E 004°37'1313.4
2015-Aug-12 21:33N 53°45' E 004°45'1313.0
2015-Aug-12 20:33N 53°58' E 004°53'1312.7
2015-Aug-12 19:32N 54°09' E 005°02'26512.0
2015-Aug-11 21:24N 57°46' E 009°33'1011.3
2015-Aug-11 20:33N 57°48' E 009°51'1211.6
2015-Aug-11 19:33N 57°49' E 010°12'1211.8
2015-Aug-11 18:33N 57°49' E 010°35'7 7.4
2015-Aug-11 17:33N 57°44' E 010°45'3 2.6
2015-Aug-11 16:33N 57°42' E 010°47'1110.7
2015-Aug-11 15:33N 57°38' E 011°06'1312.9
2015-Aug-11 14:33N 57°30' E 011°23'1212.5
2015-Aug-11 13:33N 57°18' E 011°33'1313.1
2015-Aug-11 12:33N 57°06' E 011°41'1313.1
2015-Aug-11 11:33N 56°54' E 011°49'1111.4
2015-Aug-11 10:33N 56°42' E 011°47'6512.0
2015-Aug-11 05:10N 55°46' E 010°49'813.7
2015-Aug-11 04:34N 55°38' E 010°48'1414.1
2015-Aug-11 03:33N 55°25' E 010°59'1211.9
2015-Aug-11 02:34N 55°14' E 011°06'1313.2
2015-Aug-11 01:34N 55°01' E 011°02'1212.4
2015-Aug-11 00:33N 54°50' E 010°52'1211.6
2015-Aug-10 23:34N 54°39' E 011°00'1413.6
2015-Aug-10 22:34N 54°33' E 011°21'1313.1
2015-Aug-10 21:33N 54°28' E 011°42'1312.9
2015-Aug-10 20:34N 54°27' E 012°04'1111.1
2015-Aug-10 19:33N 54°35' E 012°16'7 6.8
2015-Aug-10 18:34N 54°40' E 012°24'1212.2
2015-Aug-10 17:34N 54°47' E 012°42'1312.8
2015-Aug-10 16:33N 54°52' E 013°03'1313.1
2015-Aug-10 15:33N 54°56' E 013°24'1312.7
2015-Aug-10 14:34N 55°00' E 013°45'1312.8
2015-Aug-10 13:33N 55°05' E 014°06'1312.6
2015-Aug-10 12:33N 55°15' E 014°19'1312.8
2015-Aug-10 11:33N 55°25' E 014°33'1312.7
2015-Aug-10 10:33N 55°32' E 014°52'1313.0
2015-Aug-10 09:33N 55°38' E 015°12'1312.9
2015-Aug-10 08:33N 55°45' E 015°32'1312.9
2015-Aug-10 07:33N 55°51' E 015°52'1312.8
2015-Aug-10 06:33N 55°58' E 016°11'1312.9
2015-Aug-10 05:33N 56°04' E 016°32'1512.9
2015-Aug-10 04:25N 56°12' E 016°54'1412.7
2015-Aug-10 03:18N 56°20' E 017°14'2512.5
2015-Aug-10 01:19N 56°36' E 017°49'20212.7
2015-Aug-09 09:19N 59°14' E 021°49'1012.6
2015-Aug-09 08:33N 59°19' E 022°03'1312.6
2015-Aug-09 07:34N 59°26' E 022°24'1312.6
2015-Aug-09 06:34N 59°32' E 022°46'1312.5
2015-Aug-09 05:33N 59°35' E 023°10'1312.6
2015-Aug-09 04:33N 59°40' E 023°33'1312.7
2015-Aug-09 03:34N 59°43' E 023°58'1212.4
2015-Aug-09 02:33N 59°47' E 024°21'1712.4
2015-Aug-09 01:13N 59°50' E 024°54'2212.5
2015-Aug-08 23:28N 59°54' E 025°36'1612.3
2015-Aug-08 22:11N 59°58' E 026°07'812.2
2015-Aug-08 21:33N 59°60' E 026°22'1211.7
2015-Aug-08 20:34N 60°01' E 026°45'1311.6
2015-Aug-08 19:24N 60°02' E 027°12'1112.4
2015-Aug-08 18:33N 60°08' E 027°30'38 4.6
2015-Aug-08 10:20N 59°42' E 028°26'0 0.0
2015-Aug-08 00:29N 59°42' E 028°26'36 0.8
2015-Aug-06 06:10N 60°09' E 027°41'913.1
2015-Aug-06 05:31N 60°05' E 027°26'1313.6
2015-Aug-06 04:33N 59°58' E 027°04'1312.8
2015-Aug-06 03:33N 59°60' E 026°39'1313.3
2015-Aug-06 02:34N 59°56' E 026°13'1313.2
2015-Aug-06 01:33N 59°52' E 025°48'1313.1
2015-Aug-06 00:33N 59°50' E 025°22'1313.2
2015-Aug-05 23:33N 59°47' E 024°56'1313.4
2015-Aug-05 22:33N 59°44' E 024°31'1313.2
2015-Aug-05 21:33N 59°41' E 024°05'1313.1
2015-Aug-05 20:33N 59°36' E 023°41'1312.9
2015-Aug-05 19:33N 59°32' E 023°17'1312.7
2015-Aug-05 18:33N 59°28' E 022°53'1312.6
2015-Aug-05 17:33N 59°23' E 022°31'1312.9
2015-Aug-05 16:33N 59°15' E 022°11'20813.7
2015-Aug-05 01:18N 56°11' E 019°08'1014.0
2015-Aug-05 00:33N 56°00' E 019°06'1413.8
2015-Aug-04 23:33N 55°47' E 019°03'1413.7
2015-Aug-04 22:33N 55°33' E 019°01'1413.8
2015-Aug-04 21:34N 55°20' E 019°04'1413.9
2015-Aug-04 20:34N 55°06' E 019°09'1413.9
2015-Aug-04 19:33N 54°52' E 019°15'1413.7
2015-Aug-04 18:34N 54°46' E 019°35'1312.2
2015-Aug-04 17:29N 54°38' E 019°54'11 1.5
2015-Aug-04 10:11N 54°41' E 020°12'0 0.0
2015-Aug-04 09:26N 54°41' E 020°12'0 0.0
2015-Aug-04 08:32N 54°41' E 020°12'0 0.0
2015-Aug-04 07:29N 54°41' E 020°12'0 0.0
2015-Aug-04 06:32N 54°41' E 020°12'0 0.0
2015-Aug-04 05:32N 54°41' E 020°12'0 0.0
2015-Aug-04 04:32N 54°41' E 020°12'0 0.0
2015-Aug-04 03:32N 54°41' E 020°12'0 0.0
2015-Aug-04 02:32N 54°41' E 020°12'0 0.0
2015-Aug-04 01:32N 54°41' E 020°12'0 0.0
2015-Aug-04 00:32N 54°41' E 020°12'0 0.0
2015-Aug-03 23:32N 54°41' E 020°12'0 0.0
2015-Aug-03 22:32N 54°41' E 020°12'0 0.0
2015-Aug-03 21:32N 54°41' E 020°12'0 0.0
2015-Aug-03 20:32N 54°41' E 020°12'0 0.0
2015-Aug-03 19:32N 54°41' E 020°12'0 0.0
2015-Aug-03 18:29N 54°41' E 020°12'  

Dump ship's entire track history